Barnesville, Kansas
Current Conditions -  °F | °C
As of 1:55 AM on Monday 24 Nov 2014 (Local Time) from KPTS Reporting Station
Clear Clear  
Wind Chill: 39°   Ceiling: Unl
Heat Index: 43°   Visibility: 10mi
Dew Point: 33°   Wind: 6mph
Humidity: 68%   Direction: 310°NW
Pressure: 29.63"   Gusts: NA
Location:  37.9827°N, 94.7626°W
Report Text: KPTS 240755Z AUTO 31005KT 10SM CLR 06/01 A2963 RMK AO2 T00600005
Loading
Personal Weather Stations






























Interactive Weather Map New forecast layout! Learn more

10-Day Weather Forecast

Advertisements
Track Severe Weather on mobile